sensor_id;sensor_type;location;lat;lon;timestamp;P1;durP1;ratioP1;P2;durP2;ratioP2
62006;SDS011;47963;53.008;6.754;2022-10-19T00:01:48;14.20;;;3.78;;
62006;SDS011;47963;53.008;6.754;2022-10-19T00:04:14;15.98;;;4.10;;
62006;SDS011;47963;53.008;6.754;2022-10-19T00:06:39;18.30;;;4.07;;
62006;SDS011;47963;53.008;6.754;2022-10-19T00:09:07;17.30;;;4.10;;
62006;SDS011;47963;53.008;6.754;2022-10-19T00:11:34;14.38;;;4.10;;
62006;SDS011;47963;53.008;6.754;2022-10-19T00:14:02;15.38;;;4.00;;
62006;SDS011;47963;53.008;6.754;2022-10-19T00:16:29;18.20;;;4.55;;
62006;SDS011;47963;53.008;6.754;2022-10-19T00:18:57;12.98;;;4.20;;
62006;SDS011;47963;53.008;6.754;2022-10-19T00:21:23;16.95;;;4.47;;
62006;SDS011;47963;53.008;6.754;2022-10-19T00:23:49;17.15;;;4.43;;
62006;SDS011;47963;53.008;6.754;2022-10-19T00:26:15;16.20;;;4.47;;
62006;SDS011;47963;53.008;6.754;2022-10-19T00:28:41;19.35;;;5.47;;
62006;SDS011;47963;53.008;6.754;2022-10-19T00:31:08;18.80;;;4.97;;
62006;SDS011;47963;53.008;6.754;2022-10-19T00:33:36;18.65;;;5.40;;
62006;SDS011;47963;53.008;6.754;2022-10-19T00:36:02;18.38;;;5.47;;
62006;SDS011;47963;53.008;6.754;2022-10-19T00:38:28;20.70;;;5.68;;
62006;SDS011;47963;53.008;6.754;2022-10-19T00:40:53;16.90;;;5.50;;
62006;SDS011;47963;53.008;6.754;2022-10-19T00:43:23;22.65;;;5.32;;
62006;SDS011;47963;53.008;6.754;2022-10-19T00:45:51;18.23;;;4.77;;
62006;SDS011;47963;53.008;6.754;2022-10-19T00:48:18;17.80;;;5.20;;
62006;SDS011;47963;53.008;6.754;2022-10-19T00:50:50;17.67;;;5.30;;
62006;SDS011;47963;53.008;6.754;2022-10-19T00:53:19;17.25;;;5.00;;
62006;SDS011;47963;53.008;6.754;2022-10-19T00:55:46;21.45;;;5.10;;
62006;SDS011;47963;53.008;6.754;2022-10-19T00:58:12;22.63;;;4.80;;
62006;SDS011;47963;53.008;6.754;2022-10-19T01:00:39;21.48;;;5.13;;
62006;SDS011;47963;53.008;6.754;2022-10-19T01:03:05;23.70;;;4.93;;
62006;SDS011;47963;53.008;6.754;2022-10-19T01:05:32;24.13;;;5.32;;
62006;SDS011;47963;53.008;6.754;2022-10-19T01:07:59;20.40;;;5.43;;
62006;SDS011;47963;53.008;6.754;2022-10-19T01:10:32;16.65;;;5.00;;
62006;SDS011;47963;53.008;6.754;2022-10-19T01:13:18;16.55;;;4.75;;
62006;SDS011;47963;53.008;6.754;2022-10-19T01:15:49;14.88;;;4.95;;
62006;SDS011;47963;53.008;6.754;2022-10-19T01:18:21;20.58;;;5.72;;
62006;SDS011;47963;53.008;6.754;2022-10-19T01:26:45;20.05;;;5.00;;
62006;SDS011;47963;53.008;6.754;2022-10-19T01:40:50;20.30;;;5.35;;
62006;SDS011;47963;53.008;6.754;2022-10-19T01:46:21;17.00;;;4.40;;
62006;SDS011;47963;53.008;6.754;2022-10-19T01:49:00;17.67;;;5.05;;
62006;SDS011;47963;53.008;6.754;2022-10-19T01:51:29;19.40;;;4.80;;
62006;SDS011;47963;53.008;6.754;2022-10-19T01:53:59;16.50;;;4.82;;
62006;SDS011;47963;53.008;6.754;2022-10-19T01:56:28;21.50;;;5.10;;
62006;SDS011;47963;53.008;6.754;2022-10-19T01:58:57;22.35;;;4.90;;
62006;SDS011;47963;53.008;6.754;2022-10-19T02:01:26;21.92;;;4.35;;
62006;SDS011;47963;53.008;6.754;2022-10-19T02:03:55;21.08;;;5.10;;
62006;SDS011;47963;53.008;6.754;2022-10-19T02:06:22;15.05;;;4.50;;
62006;SDS011;47963;53.008;6.754;2022-10-19T02:08:49;16.33;;;4.47;;
62006;SDS011;47963;53.008;6.754;2022-10-19T02:11:16;20.70;;;4.90;;
62006;SDS011;47963;53.008;6.754;2022-10-19T02:13:44;17.80;;;4.57;;
62006;SDS011;47963;53.008;6.754;2022-10-19T02:16:15;28.52;;;4.88;;
62006;SDS011;47963;53.008;6.754;2022-10-19T02:18:46;21.15;;;4.55;;
62006;SDS011;47963;53.008;6.754;2022-10-19T02:21:15;22.08;;;4.30;;
62006;SDS011;47963;53.008;6.754;2022-10-19T02:23:41;24.95;;;4.90;;
62006;SDS011;47963;53.008;6.754;2022-10-19T02:26:06;22.25;;;4.40;;
62006;SDS011;47963;53.008;6.754;2022-10-19T02:28:33;19.88;;;4.38;;
62006;SDS011;47963;53.008;6.754;2022-10-19T02:30:59;23.38;;;5.15;;
62006;SDS011;47963;53.008;6.754;2022-10-19T02:33:25;21.85;;;4.20;;
62006;SDS011;47963;53.008;6.754;2022-10-19T02:35:52;21.17;;;4.72;;
62006;SDS011;47963;53.008;6.754;2022-10-19T02:38:19;17.70;;;4.60;;
62006;SDS011;47963;53.008;6.754;2022-10-19T02:41:33;24.20;;;4.68;;
62006;SDS011;47963;53.008;6.754;2022-10-19T02:43:41;19.85;;;4.20;;
62006;SDS011;47963;53.008;6.754;2022-10-19T02:46:13;21.05;;;4.60;;
62006;SDS011;47963;53.008;6.754;2022-10-19T02:48:56;16.25;;;3.78;;
62006;SDS011;47963;53.008;6.754;2022-10-19T02:51:33;18.65;;;4.05;;
62006;SDS011;47963;53.008;6.754;2022-10-19T02:54:04;20.00;;;3.92;;
62006;SDS011;47963;53.008;6.754;2022-10-19T02:56:32;21.33;;;4.25;;
62006;SDS011;47963;53.008;6.754;2022-10-19T02:58:59;22.92;;;4.43;;
62006;SDS011;47963;53.008;6.754;2022-10-19T03:01:25;18.27;;;3.85;;
62006;SDS011;47963;53.008;6.754;2022-10-19T03:03:51;22.27;;;4.10;;
62006;SDS011;47963;53.008;6.754;2022-10-19T03:06:17;19.63;;;3.83;;
62006;SDS011;47963;53.008;6.754;2022-10-19T03:08:42;19.83;;;4.07;;
62006;SDS011;47963;53.008;6.754;2022-10-19T03:11:08;21.27;;;4.45;;
62006;SDS011;47963;53.008;6.754;2022-10-19T03:13:34;16.85;;;3.83;;
62006;SDS011;47963;53.008;6.754;2022-10-19T03:16:09;20.40;;;4.18;;
62006;SDS011;47963;53.008;6.754;2022-10-19T03:18:35;16.50;;;3.35;;
62006;SDS011;47963;53.008;6.754;2022-10-19T03:21:02;16.60;;;3.22;;
62006;SDS011;47963;53.008;6.754;2022-10-19T03:23:30;19.60;;;4.10;;
62006;SDS011;47963;53.008;6.754;2022-10-19T03:25:55;18.58;;;3.75;;
62006;SDS011;47963;53.008;6.754;2022-10-19T03:28:21;17.13;;;3.47;;
62006;SDS011;47963;53.008;6.754;2022-10-19T03:30:46;20.27;;;4.10;;
62006;SDS011;47963;53.008;6.754;2022-10-19T03:33:12;22.10;;;4.10;;
62006;SDS011;47963;53.008;6.754;2022-10-19T03:35:38;20.05;;;3.78;;
62006;SDS011;47963;53.008;6.754;2022-10-19T03:38:03;21.42;;;3.78;;
62006;SDS011;47963;53.008;6.754;2022-10-19T03:40:29;16.95;;;3.30;;
62006;SDS011;47963;53.008;6.754;2022-10-19T03:42:54;18.02;;;3.35;;
62006;SDS011;47963;53.008;6.754;2022-10-19T03:45:20;24.92;;;3.80;;
62006;SDS011;47963;53.008;6.754;2022-10-19T03:47:49;28.00;;;4.05;;
62006;SDS011;47963;53.008;6.754;2022-10-19T03:50:15;19.25;;;3.60;;
62006;SDS011;47963;53.008;6.754;2022-10-19T03:52:41;19.08;;;3.10;;
62006;SDS011;47963;53.008;6.754;2022-10-19T03:55:08;26.52;;;4.45;;
62006;SDS011;47963;53.008;6.754;2022-10-19T03:57:34;23.40;;;4.53;;
62006;SDS011;47963;53.008;6.754;2022-10-19T04:00:00;25.33;;;4.38;;
62006;SDS011;47963;53.008;6.754;2022-10-19T04:02:27;24.77;;;3.78;;
62006;SDS011;47963;53.008;6.754;2022-10-19T04:04:53;24.13;;;3.60;;
62006;SDS011;47963;53.008;6.754;2022-10-19T04:07:18;27.27;;;4.13;;
62006;SDS011;47963;53.008;6.754;2022-10-19T04:09:44;21.73;;;3.90;;
62006;SDS011;47963;53.008;6.754;2022-10-19T04:12:10;16.40;;;3.55;;
62006;SDS011;47963;53.008;6.754;2022-10-19T04:14:35;23.85;;;4.13;;
62006;SDS011;47963;53.008;6.754;2022-10-19T04:17:02;20.90;;;4.20;;
62006;SDS011;47963;53.008;6.754;2022-10-19T04:19:28;22.40;;;4.13;;
62006;SDS011;47963;53.008;6.754;2022-10-19T04:21:54;19.27;;;4.05;;
62006;SDS011;47963;53.008;6.754;2022-10-19T04:24:20;15.25;;;3.58;;
62006;SDS011;47963;53.008;6.754;2022-10-19T04:26:47;18.40;;;3.60;;
62006;SDS011;47963;53.008;6.754;2022-10-19T04:29:15;22.25;;;4.28;;
62006;SDS011;47963;53.008;6.754;2022-10-19T04:31:43;23.92;;;4.20;;
62006;SDS011;47963;53.008;6.754;2022-10-19T04:34:09;18.98;;;4.38;;
62006;SDS011;47963;53.008;6.754;2022-10-19T04:36:35;20.00;;;4.15;;
62006;SDS011;47963;53.008;6.754;2022-10-19T04:39:02;20.23;;;3.92;;
62006;SDS011;47963;53.008;6.754;2022-10-19T04:41:28;18.50;;;3.22;;
62006;SDS011;47963;53.008;6.754;2022-10-19T04:43:58;24.30;;;4.32;;
62006;SDS011;47963;53.008;6.754;2022-10-19T04:46:25;20.45;;;3.80;;
62006;SDS011;47963;53.008;6.754;2022-10-19T04:48:52;22.75;;;3.60;;
62006;SDS011;47963;53.008;6.754;2022-10-19T04:51:20;22.60;;;3.83;;
62006;SDS011;47963;53.008;6.754;2022-10-19T04:53:46;22.63;;;3.75;;
62006;SDS011;47963;53.008;6.754;2022-10-19T04:56:16;18.15;;;3.55;;
62006;SDS011;47963;53.008;6.754;2022-10-19T04:58:45;19.83;;;3.88;;
62006;SDS011;47963;53.008;6.754;2022-10-19T05:01:13;19.77;;;4.07;;
62006;SDS011;47963;53.008;6.754;2022-10-19T05:03:43;19.90;;;4.25;;
62006;SDS011;47963;53.008;6.754;2022-10-19T05:06:09;27.80;;;4.82;;
62006;SDS011;47963;53.008;6.754;2022-10-19T05:08:36;21.70;;;4.55;;
62006;SDS011;47963;53.008;6.754;2022-10-19T05:11:03;23.35;;;4.70;;
62006;SDS011;47963;53.008;6.754;2022-10-19T05:13:36;24.80;;;4.43;;
62006;SDS011;47963;53.008;6.754;2022-10-19T05:16:03;28.25;;;4.53;;
62006;SDS011;47963;53.008;6.754;2022-10-19T05:18:30;22.75;;;4.03;;
62006;SDS011;47963;53.008;6.754;2022-10-19T05:21:03;24.45;;;4.93;;
62006;SDS011;47963;53.008;6.754;2022-10-19T05:23:39;20.40;;;4.35;;
62006;SDS011;47963;53.008;6.754;2022-10-19T05:28:35;21.83;;;3.80;;
62006;SDS011;47963;53.008;6.754;2022-10-19T05:31:10;24.13;;;4.15;;
62006;SDS011;47963;53.008;6.754;2022-10-19T05:33:40;34.97;;;5.00;;
62006;SDS011;47963;53.008;6.754;2022-10-19T05:38:53;31.00;;;7.55;;
62006;SDS011;47963;53.008;6.754;2022-10-19T05:41:20;31.92;;;8.65;;
62006;SDS011;47963;53.008;6.754;2022-10-19T05:43:46;26.00;;;7.25;;
62006;SDS011;47963;53.008;6.754;2022-10-19T05:46:20;23.50;;;6.78;;
62006;SDS011;47963;53.008;6.754;2022-10-19T05:48:46;25.17;;;6.40;;
62006;SDS011;47963;53.008;6.754;2022-10-19T05:51:13;24.25;;;6.95;;
62006;SDS011;47963;53.008;6.754;2022-10-19T05:53:44;32.97;;;5.97;;
62006;SDS011;47963;53.008;6.754;2022-10-19T05:56:18;32.72;;;6.00;;
62006;SDS011;47963;53.008;6.754;2022-10-19T05:58:45;31.00;;;5.75;;
62006;SDS011;47963;53.008;6.754;2022-10-19T06:01:12;23.67;;;6.07;;
62006;SDS011;47963;53.008;6.754;2022-10-19T06:03:38;27.90;;;6.13;;
62006;SDS011;47963;53.008;6.754;2022-10-19T06:06:04;26.38;;;5.65;;
62006;SDS011;47963;53.008;6.754;2022-10-19T06:08:31;31.95;;;5.00;;
62006;SDS011;47963;53.008;6.754;2022-10-19T06:11:04;28.60;;;4.57;;
62006;SDS011;47963;53.008;6.754;2022-10-19T06:13:30;31.85;;;5.50;;
62006;SDS011;47963;53.008;6.754;2022-10-19T06:15:56;25.00;;;4.03;;
62006;SDS011;47963;53.008;6.754;2022-10-19T06:18:21;26.05;;;5.38;;
62006;SDS011;47963;53.008;6.754;2022-10-19T06:20:50;29.92;;;4.72;;
62006;SDS011;47963;53.008;6.754;2022-10-19T06:23:17;32.22;;;4.85;;
62006;SDS011;47963;53.008;6.754;2022-10-19T06:25:42;25.33;;;4.60;;
62006;SDS011;47963;53.008;6.754;2022-10-19T06:28:08;22.73;;;3.90;;
62006;SDS011;47963;53.008;6.754;2022-10-19T06:30:38;30.30;;;4.25;;
62006;SDS011;47963;53.008;6.754;2022-10-19T06:33:05;30.23;;;5.20;;
62006;SDS011;47963;53.008;6.754;2022-10-19T06:35:31;27.60;;;5.45;;
62006;SDS011;47963;53.008;6.754;2022-10-19T06:37:56;23.88;;;4.15;;
62006;SDS011;47963;53.008;6.754;2022-10-19T06:40:23;27.45;;;4.50;;
62006;SDS011;47963;53.008;6.754;2022-10-19T06:42:49;24.65;;;4.78;;
62006;SDS011;47963;53.008;6.754;2022-10-19T06:45:15;22.08;;;4.15;;
62006;SDS011;47963;53.008;6.754;2022-10-19T06:47:41;28.35;;;3.95;;
62006;SDS011;47963;53.008;6.754;2022-10-19T06:50:06;23.85;;;4.05;;
62006;SDS011;47963;53.008;6.754;2022-10-19T06:52:32;33.03;;;5.38;;
62006;SDS011;47963;53.008;6.754;2022-10-19T06:54:59;29.63;;;4.57;;
62006;SDS011;47963;53.008;6.754;2022-10-19T06:57:25;32.72;;;5.55;;
62006;SDS011;47963;53.008;6.754;2022-10-19T06:59:50;33.05;;;5.15;;
62006;SDS011;47963;53.008;6.754;2022-10-19T07:02:16;29.38;;;5.55;;
62006;SDS011;47963;53.008;6.754;2022-10-19T07:04:42;25.95;;;6.00;;
62006;SDS011;47963;53.008;6.754;2022-10-19T07:07:07;27.08;;;4.75;;
62006;SDS011;47963;53.008;6.754;2022-10-19T07:09:33;30.80;;;4.57;;
62006;SDS011;47963;53.008;6.754;2022-10-19T07:11:58;31.30;;;4.80;;
62006;SDS011;47963;53.008;6.754;2022-10-19T07:14:24;27.35;;;4.78;;
62006;SDS011;47963;53.008;6.754;2022-10-19T07:16:52;29.38;;;4.53;;
62006;SDS011;47963;53.008;6.754;2022-10-19T07:19:19;28.17;;;4.50;;
62006;SDS011;47963;53.008;6.754;2022-10-19T07:21:45;22.77;;;5.10;;
62006;SDS011;47963;53.008;6.754;2022-10-19T07:24:15;31.40;;;5.05;;
62006;SDS011;47963;53.008;6.754;2022-10-19T07:26:41;30.70;;;5.53;;
62006;SDS011;47963;53.008;6.754;2022-10-19T07:29:07;22.17;;;4.97;;
62006;SDS011;47963;53.008;6.754;2022-10-19T07:31:32;24.58;;;4.93;;
62006;SDS011;47963;53.008;6.754;2022-10-19T07:33:59;30.17;;;5.00;;
62006;SDS011;47963;53.008;6.754;2022-10-19T07:36:27;30.35;;;5.00;;
62006;SDS011;47963;53.008;6.754;2022-10-19T07:38:54;26.67;;;5.85;;
62006;SDS011;47963;53.008;6.754;2022-10-19T07:41:20;25.13;;;5.10;;
62006;SDS011;47963;53.008;6.754;2022-10-19T07:43:48;24.40;;;4.80;;
62006;SDS011;47963;53.008;6.754;2022-10-19T07:46:16;26.45;;;4.05;;
62006;SDS011;47963;53.008;6.754;2022-10-19T07:48:43;26.88;;;3.92;;
62006;SDS011;47963;53.008;6.754;2022-10-19T07:51:09;23.45;;;4.13;;
62006;SDS011;47963;53.008;6.754;2022-10-19T07:53:37;22.98;;;4.68;;
62006;SDS011;47963;53.008;6.754;2022-10-19T07:56:07;17.00;;;4.30;;
62006;SDS011;47963;53.008;6.754;2022-10-19T07:58:34;26.95;;;3.67;;
62006;SDS011;47963;53.008;6.754;2022-10-19T08:01:04;25.70;;;4.20;;
62006;SDS011;47963;53.008;6.754;2022-10-19T08:03:31;22.25;;;3.67;;
62006;SDS011;47963;53.008;6.754;2022-10-19T08:06:02;20.05;;;3.58;;
62006;SDS011;47963;53.008;6.754;2022-10-19T08:08:29;26.83;;;3.97;;
62006;SDS011;47963;53.008;6.754;2022-10-19T08:10:56;22.50;;;2.97;;
62006;SDS011;47963;53.008;6.754;2022-10-19T08:13:22;18.42;;;2.83;;
62006;SDS011;47963;53.008;6.754;2022-10-19T08:15:48;20.02;;;3.80;;
62006;SDS011;47963;53.008;6.754;2022-10-19T08:18:14;24.17;;;3.38;;
62006;SDS011;47963;53.008;6.754;2022-10-19T08:20:42;19.98;;;2.80;;
62006;SDS011;47963;53.008;6.754;2022-10-19T08:23:08;23.50;;;3.25;;
62006;SDS011;47963;53.008;6.754;2022-10-19T08:25:34;17.90;;;3.17;;
62006;SDS011;47963;53.008;6.754;2022-10-19T08:28:01;20.55;;;3.45;;
62006;SDS011;47963;53.008;6.754;2022-10-19T08:30:27;20.27;;;3.40;;
62006;SDS011;47963;53.008;6.754;2022-10-19T08:32:53;21.20;;;3.47;;
62006;SDS011;47963;53.008;6.754;2022-10-19T08:35:18;18.33;;;3.40;;
62006;SDS011;47963;53.008;6.754;2022-10-19T08:37:44;17.70;;;3.42;;
62006;SDS011;47963;53.008;6.754;2022-10-19T08:40:30;22.00;;;2.97;;
62006;SDS011;47963;53.008;6.754;2022-10-19T08:46:08;19.27;;;3.37;;
62006;SDS011;47963;53.008;6.754;2022-10-19T08:48:38;20.17;;;2.90;;
62006;SDS011;47963;53.008;6.754;2022-10-19T08:51:07;18.58;;;3.53;;
62006;SDS011;47963;53.008;6.754;2022-10-19T08:53:38;22.10;;;2.95;;
62006;SDS011;47963;53.008;6.754;2022-10-19T09:01:56;18.73;;;3.28;;
62006;SDS011;47963;53.008;6.754;2022-10-19T09:04:39;23.33;;;3.42;;
62006;SDS011;47963;53.008;6.754;2022-10-19T09:09:49;19.38;;;3.22;;
62006;SDS011;47963;53.008;6.754;2022-10-19T09:12:31;19.88;;;3.10;;
62006;SDS011;47963;53.008;6.754;2022-10-19T09:15:17;20.90;;;3.03;;
62006;SDS011;47963;53.008;6.754;2022-10-19T09:17:46;15.93;;;2.70;;
62006;SDS011;47963;53.008;6.754;2022-10-19T09:20:21;19.27;;;3.00;;
62006;SDS011;47963;53.008;6.754;2022-10-19T09:25:54;15.90;;;2.70;;
62006;SDS011;47963;53.008;6.754;2022-10-19T09:30:58;22.20;;;3.65;;
62006;SDS011;47963;53.008;6.754;2022-10-19T09:33:29;18.70;;;2.65;;
62006;SDS011;47963;53.008;6.754;2022-10-19T09:35:59;18.85;;;3.13;;
62006;SDS011;47963;53.008;6.754;2022-10-19T09:38:28;21.02;;;3.65;;
62006;SDS011;47963;53.008;6.754;2022-10-19T09:40:56;19.15;;;3.42;;
62006;SDS011;47963;53.008;6.754;2022-10-19T09:43:23;19.75;;;3.35;;
62006;SDS011;47963;53.008;6.754;2022-10-19T09:48:34;20.67;;;3.47;;
62006;SDS011;47963;53.008;6.754;2022-10-19T09:53:42;22.98;;;4.55;;
62006;SDS011;47963;53.008;6.754;2022-10-19T09:56:24;18.85;;;3.97;;
62006;SDS011;47963;53.008;6.754;2022-10-19T09:58:55;17.35;;;3.35;;
62006;SDS011;47963;53.008;6.754;2022-10-19T10:01:35;19.63;;;3.30;;
62006;SDS011;47963;53.008;6.754;2022-10-19T10:04:15;21.75;;;3.38;;
62006;SDS011;47963;53.008;6.754;2022-10-19T10:06:42;18.25;;;3.70;;
62006;SDS011;47963;53.008;6.754;2022-10-19T10:09:17;17.23;;;3.63;;
62006;SDS011;47963;53.008;6.754;2022-10-19T10:11:48;15.65;;;4.35;;
62006;SDS011;47963;53.008;6.754;2022-10-19T10:17:20;20.95;;;4.47;;
62006;SDS011;47963;53.008;6.754;2022-10-19T10:19:51;15.75;;;3.92;;
62006;SDS011;47963;53.008;6.754;2022-10-19T10:22:31;16.23;;;3.10;;
62006;SDS011;47963;53.008;6.754;2022-10-19T10:24:58;18.80;;;3.60;;
62006;SDS011;47963;53.008;6.754;2022-10-19T10:27:28;16.42;;;3.35;;
62006;SDS011;47963;53.008;6.754;2022-10-19T10:30:08;21.70;;;3.65;;
62006;SDS011;47963;53.008;6.754;2022-10-19T10:32:43;16.92;;;3.15;;
62006;SDS011;47963;53.008;6.754;2022-10-19T10:35:24;20.13;;;3.38;;
62006;SDS011;47963;53.008;6.754;2022-10-19T10:38:03;16.15;;;2.90;;
62006;SDS011;47963;53.008;6.754;2022-10-19T10:40:38;18.23;;;3.25;;
62006;SDS011;47963;53.008;6.754;2022-10-19T10:43:05;14.30;;;2.83;;
62006;SDS011;47963;53.008;6.754;2022-10-19T10:45:40;15.57;;;3.03;;
62006;SDS011;47963;53.008;6.754;2022-10-19T10:50:43;18.77;;;3.33;;
62006;SDS011;47963;53.008;6.754;2022-10-19T10:53:28;14.88;;;2.92;;
62006;SDS011;47963;53.008;6.754;2022-10-19T10:55:56;18.98;;;3.60;;
62006;SDS011;47963;53.008;6.754;2022-10-19T11:01:10;15.75;;;2.97;;
62006;SDS011;47963;53.008;6.754;2022-10-19T11:04:05;19.65;;;3.42;;
62006;SDS011;47963;53.008;6.754;2022-10-19T11:06:39;20.55;;;3.95;;
62006;SDS011;47963;53.008;6.754;2022-10-19T11:09:28;15.57;;;2.92;;
62006;SDS011;47963;53.008;6.754;2022-10-19T11:12:03;18.25;;;3.13;;
62006;SDS011;47963;53.008;6.754;2022-10-19T11:17:21;18.17;;;4.07;;
62006;SDS011;47963;53.008;6.754;2022-10-19T11:19:51;15.90;;;4.28;;
62006;SDS011;47963;53.008;6.754;2022-10-19T11:22:23;16.65;;;4.35;;
62006;SDS011;47963;53.008;6.754;2022-10-19T11:30:19;15.13;;;3.80;;
62006;SDS011;47963;53.008;6.754;2022-10-19T11:35:46;18.17;;;4.20;;
62006;SDS011;47963;53.008;6.754;2022-10-19T11:41:06;18.58;;;3.72;;
62006;SDS011;47963;53.008;6.754;2022-10-19T11:44:08;20.05;;;3.97;;
62006;SDS011;47963;53.008;6.754;2022-10-19T11:46:52;15.88;;;3.40;;
62006;SDS011;47963;53.008;6.754;2022-10-19T11:53:00;15.35;;;3.42;;
62006;SDS011;47963;53.008;6.754;2022-10-19T12:01:22;17.33;;;3.83;;
62006;SDS011;47963;53.008;6.754;2022-10-19T12:12:31;14.35;;;3.05;;
62006;SDS011;47963;53.008;6.754;2022-10-19T12:15:04;14.38;;;2.70;;
62006;SDS011;47963;53.008;6.754;2022-10-19T12:17:56;18.50;;;3.03;;
62006;SDS011;47963;53.008;6.754;2022-10-19T12:22:57;12.88;;;2.67;;
62006;SDS011;47963;53.008;6.754;2022-10-19T12:25:24;14.15;;;2.85;;
62006;SDS011;47963;53.008;6.754;2022-10-19T12:27:50;16.98;;;3.10;;
62006;SDS011;47963;53.008;6.754;2022-10-19T12:30:18;15.20;;;2.95;;
62006;SDS011;47963;53.008;6.754;2022-10-19T12:35:33;15.10;;;2.20;;
62006;SDS011;47963;53.008;6.754;2022-10-19T12:38:05;15.70;;;2.80;;
62006;SDS011;47963;53.008;6.754;2022-10-19T12:41:09;11.55;;;2.83;;
62006;SDS011;47963;53.008;6.754;2022-10-19T12:44:07;13.00;;;2.65;;
62006;SDS011;47963;53.008;6.754;2022-10-19T12:46:43;11.10;;;2.38;;
62006;SDS011;47963;53.008;6.754;2022-10-19T12:51:51;17.13;;;2.80;;
62006;SDS011;47963;53.008;6.754;2022-10-19T12:54:20;14.20;;;2.67;;
62006;SDS011;47963;53.008;6.754;2022-10-19T12:56:48;14.35;;;2.67;;
62006;SDS011;47963;53.008;6.754;2022-10-19T12:59:30;12.32;;;2.65;;
62006;SDS011;47963;53.008;6.754;2022-10-19T13:01:58;11.40;;;2.45;;
62006;SDS011;47963;53.008;6.754;2022-10-19T13:04:26;11.82;;;2.42;;
62006;SDS011;47963;53.008;6.754;2022-10-19T13:14:51;13.10;;;2.88;;
62006;SDS011;47963;53.008;6.754;2022-10-19T13:22:42;13.82;;;4.03;;
62006;SDS011;47963;53.008;6.754;2022-10-19T13:27:41;15.00;;;4.23;;
62006;SDS011;47963;53.008;6.754;2022-10-19T13:32:57;16.58;;;5.55;;
62006;SDS011;47963;53.008;6.754;2022-10-19T13:35:25;15.55;;;5.93;;
62006;SDS011;47963;53.008;6.754;2022-10-19T13:46:17;19.50;;;7.95;;
62006;SDS011;47963;53.008;6.754;2022-10-19T14:00:00;17.77;;;6.72;;
62006;SDS011;47963;53.008;6.754;2022-10-19T14:05:04;17.42;;;6.95;;
62006;SDS011;47963;53.008;6.754;2022-10-19T14:07:53;16.80;;;7.50;;
62006;SDS011;47963;53.008;6.754;2022-10-19T14:10:34;21.33;;;9.68;;
62006;SDS011;47963;53.008;6.754;2022-10-19T14:13:01;18.70;;;7.47;;
62006;SDS011;47963;53.008;6.754;2022-10-19T14:15:30;18.10;;;7.60;;
62006;SDS011;47963;53.008;6.754;2022-10-19T14:17:58;17.75;;;7.82;;
62006;SDS011;47963;53.008;6.754;2022-10-19T14:20:34;17.92;;;8.40;;
62006;SDS011;47963;53.008;6.754;2022-10-19T14:23:18;16.60;;;8.55;;
62006;SDS011;47963;53.008;6.754;2022-10-19T14:25:58;21.25;;;11.43;;
62006;SDS011;47963;53.008;6.754;2022-10-19T14:28:27;17.42;;;11.88;;
62006;SDS011;47963;53.008;6.754;2022-10-19T14:31:00;18.67;;;12.65;;
62006;SDS011;47963;53.008;6.754;2022-10-19T14:33:31;21.48;;;11.95;;
62006;SDS011;47963;53.008;6.754;2022-10-19T14:35:59;18.33;;;11.85;;
62006;SDS011;47963;53.008;6.754;2022-10-19T14:41:03;18.20;;;11.60;;
62006;SDS011;47963;53.008;6.754;2022-10-19T14:43:30;19.20;;;11.00;;
62006;SDS011;47963;53.008;6.754;2022-10-19T14:48:36;17.52;;;10.18;;
62006;SDS011;47963;53.008;6.754;2022-10-19T14:51:27;16.25;;;9.77;;
62006;SDS011;47963;53.008;6.754;2022-10-19T14:56:32;19.02;;;10.73;;
62006;SDS011;47963;53.008;6.754;2022-10-19T15:01:47;18.85;;;9.68;;
62006;SDS011;47963;53.008;6.754;2022-10-19T15:04:21;15.85;;;8.93;;
62006;SDS011;47963;53.008;6.754;2022-10-19T15:06:51;13.40;;;8.85;;
62006;SDS011;47963;53.008;6.754;2022-10-19T15:09:25;18.38;;;9.68;;
62006;SDS011;47963;53.008;6.754;2022-10-19T15:11:54;13.73;;;8.98;;
62006;SDS011;47963;53.008;6.754;2022-10-19T15:14:29;15.65;;;9.07;;
62006;SDS011;47963;53.008;6.754;2022-10-19T15:17:01;19.10;;;8.90;;
62006;SDS011;47963;53.008;6.754;2022-10-19T15:19:30;16.98;;;8.98;;
62006;SDS011;47963;53.008;6.754;2022-10-19T15:24:38;17.02;;;6.97;;
62006;SDS011;47963;53.008;6.754;2022-10-19T15:27:09;12.30;;;6.38;;
62006;SDS011;47963;53.008;6.754;2022-10-19T15:29:56;11.65;;;6.18;;
62006;SDS011;47963;53.008;6.754;2022-10-19T15:32:24;14.77;;;5.75;;
62006;SDS011;47963;53.008;6.754;2022-10-19T15:34:55;14.23;;;6.13;;
62006;SDS011;47963;53.008;6.754;2022-10-19T15:37:22;14.63;;;5.28;;
62006;SDS011;47963;53.008;6.754;2022-10-19T15:39:49;14.38;;;5.72;;
62006;SDS011;47963;53.008;6.754;2022-10-19T15:42:30;60.42;;;24.48;;
62006;SDS011;47963;53.008;6.754;2022-10-19T15:45:03;16.63;;;6.93;;
62006;SDS011;47963;53.008;6.754;2022-10-19T15:48:14;12.95;;;5.47;;
62006;SDS011;47963;53.008;6.754;2022-10-19T15:50:45;12.18;;;5.45;;
62006;SDS011;47963;53.008;6.754;2022-10-19T15:53:12;14.93;;;6.40;;
62006;SDS011;47963;53.008;6.754;2022-10-19T15:55:38;11.73;;;5.78;;
62006;SDS011;47963;53.008;6.754;2022-10-19T15:58:04;14.23;;;5.22;;
62006;SDS011;47963;53.008;6.754;2022-10-19T16:00:30;13.27;;;5.68;;
62006;SDS011;47963;53.008;6.754;2022-10-19T16:02:56;18.00;;;8.18;;
62006;SDS011;47963;53.008;6.754;2022-10-19T16:05:22;13.30;;;5.38;;
62006;SDS011;47963;53.008;6.754;2022-10-19T16:07:48;14.07;;;5.78;;
62006;SDS011;47963;53.008;6.754;2022-10-19T16:10:15;12.48;;;5.55;;
62006;SDS011;47963;53.008;6.754;2022-10-19T16:12:42;17.30;;;5.80;;
62006;SDS011;47963;53.008;6.754;2022-10-19T16:15:10;12.07;;;6.07;;
62006;SDS011;47963;53.008;6.754;2022-10-19T16:17:43;19.42;;;7.72;;
62006;SDS011;47963;53.008;6.754;2022-10-19T16:20:11;16.08;;;7.22;;
62006;SDS011;47963;53.008;6.754;2022-10-19T16:22:37;16.13;;;7.80;;
62006;SDS011;47963;53.008;6.754;2022-10-19T16:25:03;18.02;;;8.43;;
62006;SDS011;47963;53.008;6.754;2022-10-19T16:27:29;17.63;;;9.80;;
62006;SDS011;47963;53.008;6.754;2022-10-19T16:29:54;17.73;;;10.15;;
62006;SDS011;47963;53.008;6.754;2022-10-19T16:32:20;17.08;;;8.07;;
62006;SDS011;47963;53.008;6.754;2022-10-19T16:34:46;17.23;;;6.40;;
62006;SDS011;47963;53.008;6.754;2022-10-19T16:37:11;13.57;;;6.47;;
62006;SDS011;47963;53.008;6.754;2022-10-19T16:39:37;12.07;;;5.22;;
62006;SDS011;47963;53.008;6.754;2022-10-19T16:42:03;13.50;;;5.07;;
62006;SDS011;47963;53.008;6.754;2022-10-19T16:44:29;13.95;;;7.40;;
62006;SDS011;47963;53.008;6.754;2022-10-19T16:46:55;18.92;;;8.23;;
62006;SDS011;47963;53.008;6.754;2022-10-19T16:49:21;16.52;;;5.68;;
62006;SDS011;47963;53.008;6.754;2022-10-19T16:51:47;14.07;;;5.28;;
62006;SDS011;47963;53.008;6.754;2022-10-19T16:54:12;12.52;;;4.90;;
62006;SDS011;47963;53.008;6.754;2022-10-19T16:56:43;14.63;;;7.57;;
62006;SDS011;47963;53.008;6.754;2022-10-19T16:59:14;16.90;;;9.98;;
62006;SDS011;47963;53.008;6.754;2022-10-19T17:01:43;15.93;;;8.10;;
62006;SDS011;47963;53.008;6.754;2022-10-19T17:04:13;13.00;;;5.35;;
62006;SDS011;47963;53.008;6.754;2022-10-19T17:06:41;12.50;;;4.17;;
62006;SDS011;47963;53.008;6.754;2022-10-19T17:09:06;12.48;;;3.85;;
62006;SDS011;47963;53.008;6.754;2022-10-19T17:11:33;10.65;;;3.83;;
62006;SDS011;47963;53.008;6.754;2022-10-19T17:14:03;13.20;;;4.38;;
62006;SDS011;47963;53.008;6.754;2022-10-19T17:16:31;12.18;;;4.35;;
62006;SDS011;47963;53.008;6.754;2022-10-19T17:18:58;14.82;;;4.35;;